createdAt,value
2017-09-30T00:01:40.600Z,95914.84
2017-09-30T00:04:09.657Z,95914.52
2017-09-30T00:06:38.720Z,95917.52
2017-09-30T00:09:07.923Z,95914.88
2017-09-30T00:11:36.979Z,95915.00
2017-09-30T00:14:06.023Z,95913.36
2017-09-30T00:16:35.078Z,95911.20
2017-09-30T00:19:04.138Z,95903.60
2017-09-30T00:21:34.192Z,95902.85
2017-09-30T00:24:03.226Z,95910.02
2017-09-30T00:26:32.295Z,95903.03
2017-09-30T00:29:01.354Z,95899.73
2017-09-30T00:31:31.393Z,95902.31
2017-09-30T00:34:01.413Z,95898.15
2017-09-30T00:36:30.454Z,95896.12
2017-09-30T00:38:59.573Z,95896.48
2017-09-30T00:41:28.629Z,95893.97
2017-09-30T00:43:57.662Z,95888.03
2017-09-30T00:46:26.721Z,95878.52
2017-09-30T00:48:55.770Z,95877.53
2017-09-30T00:51:24.863Z,95867.08
2017-09-30T00:53:53.902Z,95868.53
2017-09-30T00:56:23.003Z,95866.73
2017-09-30T00:58:52.070Z,95862.53
2017-09-30T01:01:21.122Z,95863.23
2017-09-30T01:03:50.275Z,95865.99
2017-09-30T01:06:19.407Z,95868.38
2017-09-30T01:08:48.565Z,95867.88
2017-09-30T01:11:19.868Z,95868.83
2017-09-30T01:13:49.007Z,95866.75
2017-09-30T01:16:18.103Z,95869.02
2017-09-30T01:18:48.239Z,95861.14
2017-09-30T01:21:17.710Z,95862.37
2017-09-30T01:23:47.158Z,95857.23
2017-09-30T01:26:16.610Z,95857.00
2017-09-30T01:28:45.837Z,95853.70
2017-09-30T01:31:15.322Z,95856.28
2017-09-30T01:33:44.408Z,95853.70
2017-09-30T01:36:15.514Z,95851.00
2017-09-30T01:38:44.613Z,95847.23
2017-09-30T01:41:13.774Z,95848.06
2017-09-30T01:43:42.805Z,95845.98
2017-09-30T01:46:12.003Z,95850.10
2017-09-30T01:48:41.068Z,95841.38
2017-09-30T01:51:10.098Z,95840.38
2017-09-30T01:53:39.149Z,95836.32
2017-09-30T01:56:08.202Z,95836.90
2017-09-30T01:58:37.401Z,95835.81
2017-09-30T02:01:06.452Z,95832.09
2017-09-30T02:03:35.499Z,95827.47
2017-09-30T02:06:04.558Z,95828.41
2017-09-30T02:08:33.616Z,95823.63
2017-09-30T02:11:02.646Z,95823.95
2017-09-30T02:13:31.699Z,95818.54
2017-09-30T02:16:00.767Z,95814.88
2017-09-30T02:18:30.037Z,95818.38
2017-09-30T02:20:59.074Z,95821.91
2017-09-30T02:23:28.123Z,95825.83
2017-09-30T02:25:57.207Z,95825.84
2017-09-30T02:28:26.266Z,95824.19
2017-09-30T02:30:56.262Z,95820.76
2017-09-30T02:33:25.306Z,95826.33
2017-09-30T02:35:54.359Z,95823.52
2017-09-30T02:38:23.446Z,95825.33
2017-09-30T02:40:52.547Z,95825.03
2017-09-30T02:43:21.561Z,95822.97
2017-09-30T02:45:50.628Z,95819.16
2017-09-30T02:48:19.678Z,95816.83
2017-09-30T02:50:48.731Z,95811.64
2017-09-30T02:53:17.792Z,95811.99
2017-09-30T02:55:50.170Z,95808.78
2017-09-30T02:58:19.518Z,95808.31
2017-09-30T03:00:48.565Z,95800.25
2017-09-30T03:03:17.615Z,95804.84
2017-09-30T03:05:46.682Z,95803.41
2017-09-30T03:08:17.674Z,95798.38
2017-09-30T03:10:46.714Z,95800.91
2017-09-30T03:13:15.754Z,95796.80
2017-09-30T03:15:44.812Z,95794.19
2017-09-30T03:18:13.871Z,95790.45
2017-09-30T03:20:43.887Z,95788.52
2017-09-30T03:23:12.937Z,95787.47
2017-09-30T03:25:41.995Z,95787.95
2017-09-30T03:28:11.071Z,95788.32
2017-09-30T03:30:40.134Z,95788.00
2017-09-30T03:33:09.233Z,95785.37
2017-09-30T03:35:38.286Z,95782.20
2017-09-30T03:38:07.331Z,95773.73
2017-09-30T03:40:36.409Z,95772.38
2017-09-30T03:43:05.446Z,95776.48
2017-09-30T03:45:34.489Z,95775.52
2017-09-30T03:48:03.532Z,95775.64
2017-09-30T03:50:32.604Z,95772.16
2017-09-30T03:53:01.663Z,95771.66
2017-09-30T03:55:30.744Z,95777.11
2017-09-30T03:57:59.793Z,95782.19
2017-09-30T04:00:28.883Z,95777.73
2017-09-30T04:02:57.923Z,95784.88
2017-09-30T04:05:26.977Z,95780.31
2017-09-30T04:07:56.045Z,95780.45
2017-09-30T04:10:25.084Z,95779.03
2017-09-30T04:12:54.167Z,95777.40
2017-09-30T04:15:23.211Z,95765.98
2017-09-30T04:17:52.263Z,95762.98
2017-09-30T04:20:21.358Z,95764.84
2017-09-30T04:22:50.405Z,95764.08
2017-09-30T04:25:19.458Z,95763.97
2017-09-30T04:27:48.518Z,95764.28
2017-09-30T04:30:17.588Z,95769.66
2017-09-30T04:32:46.637Z,95774.05
2017-09-30T04:35:15.690Z,95774.19
2017-09-30T04:37:44.745Z,95769.67
2017-09-30T04:40:13.805Z,95770.25
2017-09-30T04:42:42.875Z,95772.41
2017-09-30T04:45:11.947Z,95774.41
2017-09-30T04:47:41.003Z,95772.09
2017-09-30T04:50:10.070Z,95774.81
2017-09-30T04:52:39.119Z,95771.43
2017-09-30T04:55:08.282Z,95771.13
2017-09-30T04:57:37.330Z,95769.89
2017-09-30T05:00:06.401Z,95768.60
2017-09-30T05:02:36.472Z,95764.63
2017-09-30T05:05:06.491Z,95765.68
2017-09-30T05:07:35.687Z,95763.83
2017-09-30T05:10:04.751Z,95771.08
2017-09-30T05:12:33.803Z,95771.39
2017-09-30T05:15:02.895Z,95774.03
2017-09-30T05:17:32.003Z,95771.35
2017-09-30T05:20:03.029Z,95774.25
2017-09-30T05:22:33.242Z,95777.32
2017-09-30T05:25:02.287Z,95777.31
2017-09-30T05:27:32.042Z,95777.19
2017-09-30T05:30:01.083Z,95780.88
2017-09-30T05:32:30.138Z,95779.86
2017-09-30T05:35:00.230Z,95775.45
2017-09-30T05:37:29.330Z,95774.53
2017-09-30T05:39:58.394Z,95773.78
2017-09-30T05:42:27.439Z,95768.09
2017-09-30T05:44:56.487Z,95761.91
2017-09-30T05:47:25.539Z,95764.20
2017-09-30T05:49:54.587Z,95765.09
2017-09-30T05:52:23.679Z,95759.16
2017-09-30T05:54:52.727Z,95764.39
2017-09-30T05:57:21.802Z,95767.27
2017-09-30T05:59:50.850Z,95758.45
2017-09-30T06:02:19.901Z,95762.66
2017-09-30T06:04:49.029Z,95761.95
2017-09-30T06:07:18.087Z,95760.85
2017-09-30T06:09:47.180Z,95764.06
2017-09-30T06:12:16.242Z,95762.98
2017-09-30T06:14:45.324Z,95764.19
2017-09-30T06:17:14.470Z,95764.11
2017-09-30T06:19:43.526Z,95760.11
2017-09-30T06:22:12.608Z,95760.47
2017-09-30T06:24:41.681Z,95760.02
2017-09-30T06:27:10.730Z,95757.98
2017-09-30T06:29:39.779Z,95757.33
2017-09-30T06:32:08.862Z,95759.14
2017-09-30T06:34:38.020Z,95755.26
2017-09-30T06:37:07.172Z,95756.25
2017-09-30T06:39:36.434Z,95758.44
2017-09-30T06:42:05.475Z,95751.96
2017-09-30T06:44:34.655Z,95750.13
2017-09-30T06:47:03.715Z,95748.13
2017-09-30T06:49:32.943Z,95747.48
2017-09-30T06:52:01.979Z,95748.14
2017-09-30T06:54:31.027Z,95745.86
2017-09-30T06:57:00.070Z,95746.96
2017-09-30T06:59:29.470Z,95751.80
2017-09-30T07:01:58.538Z,95755.22
2017-09-30T07:04:27.602Z,95754.11
2017-09-30T07:06:56.672Z,95753.20
2017-09-30T07:09:25.723Z,95747.50
2017-09-30T07:11:54.784Z,95748.82
2017-09-30T07:14:23.895Z,95742.64
2017-09-30T07:16:52.946Z,95740.42
2017-09-30T07:19:22.041Z,95738.06
2017-09-30T07:21:51.100Z,95734.95
2017-09-30T07:24:20.151Z,95732.97
2017-09-30T07:26:49.206Z,95737.47
2017-09-30T07:29:18.263Z,95736.98
2017-09-30T07:31:47.320Z,95735.44
2017-09-30T07:34:16.380Z,95739.31
2017-09-30T07:36:45.426Z,95737.94
2017-09-30T07:39:14.493Z,95737.01
2017-09-30T07:41:43.542Z,95735.66
2017-09-30T07:44:12.588Z,95729.73
2017-09-30T07:46:41.650Z,95727.48
2017-09-30T07:49:10.806Z,95721.83
2017-09-30T07:51:39.893Z,95717.73
2017-09-30T07:54:09.108Z,95715.07
2017-09-30T07:56:38.297Z,95717.80
2017-09-30T07:59:07.324Z,95714.91
2017-09-30T08:01:36.455Z,95715.26
2017-09-30T08:04:05.499Z,95719.22
2017-09-30T08:06:34.553Z,95717.69
2017-09-30T08:09:03.606Z,95719.48
2017-09-30T08:11:32.644Z,95721.14
2017-09-30T08:14:01.847Z,95718.86
2017-09-30T08:16:30.886Z,95716.03
2017-09-30T08:18:59.934Z,95717.02
2017-09-30T08:21:28.987Z,95714.60
2017-09-30T08:23:58.043Z,95709.22
2017-09-30T08:26:29.100Z,95707.40
2017-09-30T08:28:59.411Z,95699.06
2017-09-30T08:31:28.493Z,95704.28
2017-09-30T08:33:57.528Z,95699.50
2017-09-30T08:36:26.566Z,95697.51
2017-09-30T08:38:55.661Z,95697.20
2017-09-30T08:41:24.699Z,95693.23
2017-09-30T08:43:53.784Z,95692.94
2017-09-30T08:46:22.839Z,95690.85
2017-09-30T08:48:51.907Z,95689.08
2017-09-30T08:51:20.980Z,95689.19
2017-09-30T08:53:50.031Z,95685.67
2017-09-30T08:56:19.070Z,95680.81
2017-09-30T08:58:48.132Z,95680.27
2017-09-30T09:01:17.225Z,95675.52
2017-09-30T09:03:46.253Z,95669.44
2017-09-30T09:06:15.321Z,95668.98
2017-09-30T09:08:44.374Z,95664.48
2017-09-30T09:11:13.428Z,95661.98
2017-09-30T09:13:42.526Z,95665.20
2017-09-30T09:16:11.570Z,95659.30
2017-09-30T09:18:40.624Z,95662.92
2017-09-30T09:21:09.701Z,95656.27
2017-09-30T09:23:43.975Z,95654.77
2017-09-30T09:26:18.238Z,95652.14
2017-09-30T09:28:53.576Z,95644.66
2017-09-30T09:31:28.313Z,95642.74
2017-09-30T09:34:03.758Z,95638.77
2017-09-30T09:36:39.424Z,95638.83
2017-09-30T09:39:14.974Z,95638.88
2017-09-30T09:41:49.967Z,95643.48
2017-09-30T09:44:24.194Z,95641.47
2017-09-30T09:46:59.733Z,95633.13
2017-09-30T09:49:35.999Z,95630.48
2017-09-30T09:52:10.796Z,95622.27
2017-09-30T09:54:45.661Z,95614.74
2017-09-30T09:57:21.300Z,95611.23
2017-09-30T09:59:57.963Z,95606.67
2017-09-30T10:02:32.288Z,95609.98
2017-09-30T10:05:09.938Z,95609.17
2017-09-30T10:07:45.122Z,95602.26
2017-09-30T10:10:21.618Z,95600.56
2017-09-30T10:12:55.096Z,95598.67
2017-09-30T10:15:31.151Z,95597.61
2017-09-30T10:18:05.978Z,95598.52
2017-09-30T10:20:41.810Z,95594.25
2017-09-30T10:23:15.259Z,95591.31
2017-09-30T10:25:52.350Z,95587.69
2017-09-30T10:28:27.140Z,95590.27
2017-09-30T10:31:02.356Z,95594.02
2017-09-30T10:33:37.252Z,95590.59
2017-09-30T10:36:12.532Z,95592.84
2017-09-30T10:38:46.728Z,95588.37
2017-09-30T10:41:21.660Z,95586.56
2017-09-30T10:43:56.697Z,95584.96
2017-09-30T10:46:31.709Z,95585.48
2017-09-30T10:49:06.534Z,95581.05
2017-09-30T10:51:42.203Z,95581.33
2017-09-30T10:54:15.878Z,95573.97
2017-09-30T10:56:49.967Z,95572.13
2017-09-30T10:59:25.460Z,95569.55
2017-09-30T11:01:55.089Z,95566.88
2017-09-30T11:04:24.429Z,95567.97
2017-09-30T11:06:53.487Z,95564.23
2017-09-30T11:09:22.629Z,95562.36
2017-09-30T11:11:52.411Z,95560.42
2017-09-30T11:14:21.645Z,95556.89
2017-09-30T11:16:50.712Z,95554.84
2017-09-30T11:19:19.746Z,95561.47
2017-09-30T11:21:49.112Z,95551.05
2017-09-30T11:24:18.210Z,95549.09
2017-09-30T11:26:47.231Z,95545.92
2017-09-30T11:29:16.288Z,95544.10
2017-09-30T11:31:45.346Z,95534.41
2017-09-30T11:34:14.382Z,95532.34
2017-09-30T11:36:43.430Z,95534.63
2017-09-30T11:39:12.468Z,95531.22
2017-09-30T11:41:41.538Z,95524.30
2017-09-30T11:44:10.588Z,95528.78
2017-09-30T11:46:39.667Z,95524.50
2017-09-30T11:49:08.769Z,95517.79
2017-09-30T11:51:40.407Z,95514.31
2017-09-30T11:54:09.455Z,95514.66
2017-09-30T11:56:38.505Z,95511.99
2017-09-30T11:59:07.567Z,95509.68
2017-09-30T12:01:36.622Z,95504.63
2017-09-30T12:04:05.707Z,95501.61
2017-09-30T12:06:34.876Z,95495.70
2017-09-30T12:09:03.915Z,95496.59
2017-09-30T12:11:40.997Z,95496.31
2017-09-30T12:14:12.181Z,95493.06
2017-09-30T12:16:41.275Z,95490.31
2017-09-30T12:19:10.342Z,95488.28
2017-09-30T12:21:39.390Z,95483.73
2017-09-30T12:24:08.496Z,95481.52
2017-09-30T12:26:37.522Z,95487.34
2017-09-30T12:29:06.723Z,95480.89
2017-09-30T12:31:35.799Z,95479.30
2017-09-30T12:34:04.856Z,95475.95
2017-09-30T12:36:34.122Z,95472.01
2017-09-30T12:39:03.151Z,95468.16
2017-09-30T12:41:32.224Z,95464.61
2017-09-30T12:44:01.274Z,95460.94
2017-09-30T12:46:30.781Z,95458.07
2017-09-30T12:48:59.846Z,95452.53
2017-09-30T12:51:28.970Z,95453.05
2017-09-30T12:53:58.034Z,95451.37
2017-09-30T12:56:27.082Z,95449.04
2017-09-30T12:58:56.226Z,95439.12
2017-09-30T13:01:25.586Z,95443.26
2017-09-30T13:03:54.682Z,95440.22
2017-09-30T13:06:23.769Z,95441.48
2017-09-30T13:08:52.804Z,95439.61
2017-09-30T13:11:21.984Z,95434.29
2017-09-30T13:13:51.024Z,95433.05
2017-09-30T13:16:20.102Z,95427.76
2017-09-30T13:18:49.152Z,95430.88
2017-09-30T13:21:18.245Z,95431.12
2017-09-30T13:23:47.398Z,95430.55
2017-09-30T13:26:16.439Z,95430.61
2017-09-30T13:28:45.603Z,95424.66
2017-09-30T13:31:14.639Z,95422.06
2017-09-30T13:33:43.793Z,95421.07
2017-09-30T13:36:12.871Z,95420.35
2017-09-30T13:38:41.950Z,95415.88
2017-09-30T13:41:11.109Z,95411.55
2017-09-30T13:43:40.634Z,95409.19
2017-09-30T13:46:09.687Z,95411.72
2017-09-30T13:48:38.996Z,95415.66
2017-09-30T13:51:08.063Z,95419.22
2017-09-30T13:53:38.335Z,95422.09
2017-09-30T13:56:08.154Z,95422.48
2017-09-30T13:58:43.681Z,95422.67
2017-09-30T14:01:17.591Z,95419.61
2017-09-30T14:03:46.723Z,95421.44
2017-09-30T14:06:15.764Z,95420.42
2017-09-30T14:08:44.906Z,95421.42
2017-09-30T14:11:13.951Z,95419.22
2017-09-30T14:13:42.975Z,95427.57
2017-09-30T14:16:12.038Z,95427.27
2017-09-30T14:18:41.179Z,95426.03
2017-09-30T14:21:10.222Z,95424.42
2017-09-30T14:23:41.220Z,95425.61
2017-09-30T14:26:12.822Z,95423.34
2017-09-30T14:28:41.946Z,95425.38
2017-09-30T14:31:11.007Z,95421.40
2017-09-30T14:33:40.081Z,95419.20
2017-09-30T14:36:09.324Z,95417.00
2017-09-30T14:38:38.365Z,95415.34
2017-09-30T14:41:07.422Z,95411.13
2017-09-30T14:43:36.501Z,95412.23
2017-09-30T14:46:05.593Z,95414.20
2017-09-30T14:48:34.671Z,95408.90
2017-09-30T14:51:03.750Z,95412.58
2017-09-30T14:53:32.803Z,95412.75
2017-09-30T14:56:02.139Z,95414.05
2017-09-30T14:58:31.343Z,95413.66
2017-09-30T15:01:00.411Z,95411.47
2017-09-30T15:03:29.480Z,95413.33
2017-09-30T15:05:58.554Z,95408.11
2017-09-30T15:08:28.918Z,95404.39
2017-09-30T15:10:58.067Z,95406.81
2017-09-30T15:13:27.133Z,95406.25
2017-09-30T15:15:56.172Z,95407.77
2017-09-30T15:18:25.263Z,95404.20
2017-09-30T15:20:54.998Z,95402.09
2017-09-30T15:23:24.138Z,95405.23
2017-09-30T15:25:53.270Z,95400.91
2017-09-30T15:28:22.370Z,95402.91
2017-09-30T15:30:51.551Z,95400.16
2017-09-30T15:33:20.657Z,95402.89
2017-09-30T15:35:49.758Z,95407.44
2017-09-30T15:38:18.799Z,95405.48
2017-09-30T15:40:47.843Z,95405.47
2017-09-30T15:43:17.808Z,95403.45
2017-09-30T15:45:46.854Z,95399.02
2017-09-30T15:48:16.691Z,95399.73
2017-09-30T15:50:45.754Z,95401.64
2017-09-30T15:53:14.898Z,95401.22
2017-09-30T15:55:43.995Z,95402.72
2017-09-30T15:58:13.046Z,95408.44
2017-09-30T16:00:42.099Z,95403.25
2017-09-30T16:03:11.180Z,95406.75
2017-09-30T16:05:40.294Z,95407.25
2017-09-30T16:08:09.396Z,95408.07
2017-09-30T16:10:38.501Z,95414.70
2017-09-30T16:13:07.600Z,95414.78
2017-09-30T16:15:36.688Z,95417.43
2017-09-30T16:18:05.738Z,95417.91
2017-09-30T16:20:34.799Z,95413.05
2017-09-30T16:23:05.932Z,95409.75
2017-09-30T16:25:34.971Z,95413.16
2017-09-30T16:28:04.068Z,95409.84
2017-09-30T16:30:33.118Z,95407.40
2017-09-30T16:33:02.173Z,95409.84
2017-09-30T16:35:31.279Z,95413.37
2017-09-30T16:38:01.225Z,95413.08
2017-09-30T16:40:30.282Z,95412.38
2017-09-30T16:42:59.331Z,95413.80
2017-09-30T16:45:28.405Z,95418.56
2017-09-30T16:47:57.494Z,95420.03
2017-09-30T16:50:26.549Z,95419.38
2017-09-30T16:52:55.612Z,95418.53
2017-09-30T16:55:24.654Z,95418.61
2017-09-30T16:57:54.666Z,95419.30
2017-09-30T17:00:23.755Z,95423.47
2017-09-30T17:02:52.799Z,95426.88
2017-09-30T17:05:21.890Z,95424.73
2017-09-30T17:07:50.948Z,95423.71
2017-09-30T17:10:20.001Z,95420.27
2017-09-30T17:12:49.992Z,95419.53
2017-09-30T17:15:19.046Z,95420.62
2017-09-30T17:17:48.471Z,95418.77
2017-09-30T17:20:17.487Z,95419.42
2017-09-30T17:22:46.529Z,95419.41
2017-09-30T17:25:15.616Z,95419.73
2017-09-30T17:27:44.711Z,95417.38
2017-09-30T17:30:13.763Z,95421.09
2017-09-30T17:32:42.827Z,95421.05
2017-09-30T17:35:11.890Z,95425.91
2017-09-30T17:37:40.964Z,95422.31
2017-09-30T17:40:10.009Z,95427.39
2017-09-30T17:42:39.075Z,95423.43
2017-09-30T17:45:08.126Z,95422.72
2017-09-30T17:47:37.225Z,95424.77
2017-09-30T17:50:06.276Z,95429.58
2017-09-30T17:52:35.318Z,95429.59
2017-09-30T17:55:04.425Z,95431.77
2017-09-30T17:57:33.470Z,95438.83
2017-09-30T18:00:02.684Z,95443.29
2017-09-30T18:02:31.730Z,95443.03
2017-09-30T18:05:00.775Z,95446.14
2017-09-30T18:07:29.871Z,95448.76
2017-09-30T18:09:59.892Z,95446.89
2017-09-30T18:12:28.933Z,95447.64
2017-09-30T18:14:57.990Z,95452.52
2017-09-30T18:17:27.093Z,95451.47
2017-09-30T18:19:56.150Z,95453.51
2017-09-30T18:22:26.215Z,95459.67
2017-09-30T18:24:55.274Z,95463.63
2017-09-30T18:27:24.318Z,95466.76
2017-09-30T18:29:53.374Z,95467.95
2017-09-30T18:32:22.414Z,95472.68
2017-09-30T18:34:53.578Z,95473.00
2017-09-30T18:37:22.654Z,95473.95
2017-09-30T18:39:52.671Z,95472.73
2017-09-30T18:42:21.725Z,95473.10
2017-09-30T18:44:50.774Z,95474.69
2017-09-30T18:47:19.828Z,95476.22
2017-09-30T18:49:48.875Z,95477.72
2017-09-30T18:52:17.958Z,95476.28
2017-09-30T18:54:47.020Z,95478.56
2017-09-30T18:57:16.086Z,95486.63
2017-09-30T18:59:45.147Z,95487.36
2017-09-30T19:02:14.230Z,95493.40
2017-09-30T19:04:43.282Z,95488.10
2017-09-30T19:07:12.351Z,95489.37
2017-09-30T19:09:41.402Z,95489.17
2017-09-30T19:12:10.557Z,95488.08
2017-09-30T19:14:39.614Z,95485.17
2017-09-30T19:17:08.669Z,95488.53
2017-09-30T19:19:37.733Z,95491.58
2017-09-30T19:22:06.776Z,95502.05
2017-09-30T19:24:35.846Z,95515.89
2017-09-30T19:27:04.903Z,95511.16
2017-09-30T19:29:33.962Z,95508.39
2017-09-30T19:32:03.033Z,95512.09
2017-09-30T19:34:32.102Z,95515.69
2017-09-30T19:37:01.175Z,95519.87
2017-09-30T19:39:30.222Z,95524.97
2017-09-30T19:42:00.272Z,95526.13
2017-09-30T19:44:29.327Z,95528.24
2017-09-30T19:46:58.510Z,95529.61
2017-09-30T19:49:27.584Z,95531.31
2017-09-30T19:51:57.690Z,95528.01
2017-09-30T19:54:26.756Z,95528.52
2017-09-30T19:56:55.829Z,95528.86
2017-09-30T19:59:24.878Z,95532.02
2017-09-30T20:01:53.966Z,95530.27
2017-09-30T20:04:23.006Z,95530.42
2017-09-30T20:06:52.110Z,95532.02
2017-09-30T20:09:21.158Z,95531.59
2017-09-30T20:11:50.207Z,95534.16
2017-09-30T20:14:19.274Z,95539.89
2017-09-30T20:16:48.379Z,95541.05
2017-09-30T20:19:17.435Z,95550.72
2017-09-30T20:21:46.475Z,95552.13
2017-09-30T20:24:15.549Z,95560.67
2017-09-30T20:26:44.643Z,95567.83
2017-09-30T20:29:13.721Z,95580.13
2017-09-30T20:31:42.829Z,95578.20
2017-09-30T20:34:11.901Z,95585.31
2017-09-30T20:36:40.950Z,95589.57
2017-09-30T20:39:09.994Z,95595.36
2017-09-30T20:41:39.057Z,95600.01
2017-09-30T20:44:08.112Z,95602.91
2017-09-30T20:46:37.153Z,95600.84
2017-09-30T20:49:06.250Z,95611.80
2017-09-30T20:51:35.299Z,95613.26
2017-09-30T20:54:04.354Z,95614.72
2017-09-30T20:56:33.409Z,95618.23
2017-09-30T20:59:02.501Z,95630.30
2017-09-30T21:01:31.544Z,95630.43
2017-09-30T21:04:02.595Z,95636.91
2017-09-30T21:06:31.624Z,95639.57
2017-09-30T21:09:00.716Z,95635.22
2017-09-30T21:11:29.755Z,95643.50
2017-09-30T21:13:58.803Z,95648.67
2017-09-30T21:16:27.966Z,95651.52
2017-09-30T21:18:59.131Z,95656.03
2017-09-30T21:21:28.151Z,95657.42
2017-09-30T21:23:57.191Z,95659.80
2017-09-30T21:26:26.239Z,95658.18
2017-09-30T21:28:55.289Z,95660.48
2017-09-30T21:31:24.393Z,95663.20
2017-09-30T21:33:54.024Z,95663.79
2017-09-30T21:36:23.067Z,95666.61
2017-09-30T21:38:52.128Z,95673.80
2017-09-30T21:41:21.170Z,95668.23
2017-09-30T21:43:50.408Z,95670.22
2017-09-30T21:46:19.463Z,95678.08
2017-09-30T21:48:48.497Z,95684.49
2017-09-30T21:51:17.547Z,95692.48
2017-09-30T21:53:46.606Z,95690.56
2017-09-30T21:56:15.645Z,95692.26
2017-09-30T21:58:44.743Z,95699.57
2017-09-30T22:01:13.790Z,95698.16
2017-09-30T22:03:42.854Z,95697.02
2017-09-30T22:06:11.982Z,95695.06
2017-09-30T22:08:41.033Z,95692.84
2017-09-30T22:11:10.067Z,95688.82
2017-09-30T22:13:39.123Z,95689.95
2017-09-30T22:16:08.165Z,95686.33
2017-09-30T22:18:37.238Z,95682.20
2017-09-30T22:21:06.306Z,95683.79
2017-09-30T22:23:35.325Z,95682.13
2017-09-30T22:26:04.364Z,95682.17
2017-09-30T22:28:33.431Z,95682.55
2017-09-30T22:31:02.504Z,95678.00
2017-09-30T22:33:31.580Z,95685.27
2017-09-30T22:36:00.618Z,95686.01
2017-09-30T22:38:29.662Z,95694.56
2017-09-30T22:40:58.740Z,95690.95
2017-09-30T22:43:27.775Z,95699.88
2017-09-30T22:45:56.827Z,95701.48
2017-09-30T22:48:25.918Z,95711.60
2017-09-30T22:50:55.010Z,95711.28
2017-09-30T22:53:24.075Z,95718.83
2017-09-30T22:55:53.115Z,95721.55
2017-09-30T22:58:22.418Z,95727.77
2017-09-30T23:00:51.452Z,95733.75
2017-09-30T23:03:20.492Z,95734.04
2017-09-30T23:05:49.529Z,95737.38
2017-09-30T23:08:18.582Z,95738.64
2017-09-30T23:10:47.642Z,95740.80
2017-09-30T23:13:16.683Z,95743.59
2017-09-30T23:15:45.722Z,95750.25
2017-09-30T23:18:14.866Z,95744.17
2017-09-30T23:20:43.911Z,95749.24
2017-09-30T23:23:15.377Z,95749.49
2017-09-30T23:25:44.406Z,95758.70
2017-09-30T23:28:13.459Z,95759.15
2017-09-30T23:30:42.507Z,95762.76
2017-09-30T23:33:11.551Z,95765.14
2017-09-30T23:35:40.594Z,95768.30
2017-09-30T23:38:09.659Z,95769.94
2017-09-30T23:40:38.708Z,95773.02
2017-09-30T23:43:07.883Z,95774.77
2017-09-30T23:45:36.911Z,95778.74
2017-09-30T23:48:05.950Z,95778.87
2017-09-30T23:50:35.019Z,95780.12
2017-09-30T23:53:04.063Z,95785.17
2017-09-30T23:55:33.106Z,95783.17
2017-09-30T23:58:02.150Z,95784.78
